Corral, Idaho
Current Conditions -  °F | °C
As of 11:47 AM on Tuesday 21 Oct 2014 (Local Time) from KSUN Reporting Station
Overcast Overcast  
Wind Chill: 40°   Ceiling: 4000
Heat Index: 45°   Visibility: 10mi
Dew Point: 36°   Wind: 9mph
Humidity: 71%   Direction: 170°S
Pressure: 30.03"   Gusts: NA
Location:  43.34°N, 114.95°W
Report Text: KSUN 211747Z 17008KT 10SM SCT020 BKN040 OVC050 07/02 A3003
Loading
Personal Weather Stations






























Interactive Weather Map
Tropical Storm Tracking
New forecast layout! Learn more

10-Day Weather Forecast

Advertisements
Track Severe Weather on mobile